Time;durP1;ratioP1;P1;durP2;ratioP2;P2;SDS_P1;SDS_P2;PMS_P1;PMS_P2;Temp;Humidity;BMP_temperature;BMP_pressure;BME280_temperature;BME280_humidity;BME280_pressure;Samples;Min_cycle;Max_cycle;Signal;HPM_P1;HPM_P2
2022/06/07 00:00:45;;;;;;;1.80;0.80;;;19.40;99.90;;;;;;5037235;28;20502;-83
2022/06/07 00:03:12;;;;;;;2.45;1.00;;;19.40;99.90;;;;;;5055424;28;20031;-83
2022/06/07 00:05:40;;;;;;;1.77;1.00;;;19.40;99.90;;;;;;5055072;28;20053;-84
2022/06/07 00:08:06;;;;;;;3.00;0.90;;;19.40;99.90;;;;;;5037191;28;20442;-83
2022/06/07 00:10:34;;;;;;;1.35;0.77;;;19.40;99.90;;;;;;5037543;28;20020;-84
2022/06/07 00:12:59;;;;;;;5.25;0.85;;;19.40;99.90;;;;;;5037158;28;20017;-84
2022/06/07 00:15:25;;;;;;;2.88;0.90;;;19.40;99.90;;;;;;5037026;28;20024;-84
2022/06/07 00:17:51;;;;;;;2.20;0.80;;;19.40;99.90;;;;;;5037676;28;20025;-83
2022/06/07 00:20:18;;;;;;;4.07;0.73;;;19.40;99.90;;;;;;5055125;28;20044;-83
2022/06/07 00:22:44;;;;;;;4.05;0.80;;;19.40;99.90;;;;;;5051976;28;20103;-84
2022/06/07 00:25:12;;;;;;;1.27;0.70;;;19.40;99.90;;;;;;5017163;28;20029;-84
2022/06/07 00:27:38;;;;;;;1.23;0.88;;;19.40;99.90;;;;;;5017070;28;20458;-84
2022/06/07 00:30:05;;;;;;;2.80;0.80;;;19.30;99.90;;;;;;5016986;28;20104;-83
2022/06/07 00:32:33;;;;;;;3.17;1.00;;;19.40;99.90;;;;;;5016888;28;20542;-83
2022/06/07 00:34:58;;;;;;;3.17;0.90;;;19.30;99.90;;;;;;5034884;28;20390;-83
2022/06/07 00:37:24;;;;;;;2.22;0.95;;;19.30;99.90;;;;;;5016810;28;20029;-83
2022/06/07 00:39:50;;;;;;;1.30;0.75;;;19.30;99.90;;;;;;5016887;28;20111;-84
2022/06/07 00:42:15;;;;;;;2.50;0.80;;;19.30;99.90;;;;;;5034505;28;20389;-83
2022/06/07 00:44:44;;;;;;;2.47;0.73;;;19.30;99.90;;;;;;5016572;28;20032;-84
2022/06/07 00:47:12;;;;;;;1.40;0.88;;;19.30;99.90;;;;;;5016677;28;20507;-84
2022/06/07 00:49:49;;;;;;;1.45;0.65;;;19.30;99.90;;;;;;5016482;28;20028;-83
2022/06/07 00:52:17;;;;;;;2.05;0.90;;;19.30;99.90;;;;;;5016716;28;20018;-83
2022/06/07 00:54:43;;;;;;;1.65;0.82;;;19.30;99.90;;;;;;5016565;28;20037;-83
2022/06/07 00:57:09;;;;;;;2.70;1.10;;;19.30;99.90;;;;;;5016494;28;20033;-84
2022/06/07 00:59:35;;;;;;;2.40;0.75;;;19.30;99.90;;;;;;5016425;28;20031;-83
2022/06/07 01:02:01;;;;;;;2.70;1.10;;;19.30;99.90;;;;;;5033587;28;20037;-84
2022/06/07 01:04:27;;;;;;;1.48;0.90;;;19.30;99.90;;;;;;5000078;28;20499;-84
2022/06/07 01:12:24;;;;;;;1.75;0.80;;;19.30;99.90;;;;;;5034554;28;20032;-83
2022/06/07 01:14:49;;;;;;;2.10;0.77;;;19.30;99.90;;;;;;5033886;28;20037;-84
2022/06/07 01:17:15;;;;;;;2.67;0.80;;;19.30;99.90;;;;;;5016232;28;20053;-84
2022/06/07 01:19:41;;;;;;;0.90;0.63;;;19.30;99.90;;;;;;5016102;28;20477;-83
2022/06/07 01:22:08;;;;;;;2.17;0.80;;;19.30;99.90;;;;;;5016854;28;20037;-84
2022/06/07 01:24:34;;;;;;;2.17;0.77;;;19.30;99.90;;;;;;5033466;28;20045;-84
2022/06/07 01:26:59;;;;;;;3.92;0.90;;;19.30;99.90;;;;;;5053563;28;20357;-83
2022/06/07 01:29:25;;;;;;;3.25;0.85;;;19.20;99.90;;;;;;5036777;28;20017;-83
2022/06/07 01:31:51;;;;;;;1.23;0.50;;;19.30;99.90;;;;;;5035782;28;20056;-83
2022/06/07 01:34:17;;;;;;;1.75;0.68;;;19.30;99.90;;;;;;5053828;28;20021;-83
2022/06/07 01:36:42;;;;;;;1.65;0.60;;;19.30;99.90;;;;;;5035934;28;20025;-83
2022/06/07 01:41:56;;;;;;;2.08;0.90;;;19.20;99.90;;;;;;5053984;28;20040;-84
2022/06/07 01:44:27;;;;;;;2.45;0.70;;;19.30;99.90;;;;;;5035398;28;20033;-83
2022/06/07 01:46:54;;;;;;;1.38;0.57;;;19.20;99.90;;;;;;5035516;28;20500;-83
2022/06/07 01:49:20;;;;;;;1.98;0.80;;;19.20;99.90;;;;;;5035481;28;20048;-84
2022/06/07 01:51:46;;;;;;;1.20;0.60;;;19.20;99.90;;;;;;5053573;28;20032;-84
2022/06/07 01:54:13;;;;;;;1.00;0.60;;;19.20;99.90;;;;;;5035413;28;20021;-83
2022/06/07 01:56:40;;;;;;;2.00;0.90;;;19.20;99.90;;;;;;5053190;28;20075;-83
2022/06/07 01:59:06;;;;;;;0.88;0.75;;;19.20;99.90;;;;;;5035164;28;20083;-83
2022/06/07 02:01:32;;;;;;;1.20;0.60;;;19.20;99.90;;;;;;5053141;28;20029;-83
2022/06/07 02:03:58;;;;;;;1.15;0.77;;;19.20;99.90;;;;;;5053216;28;20036;-83
2022/06/07 02:06:25;;;;;;;2.45;0.75;;;19.20;99.90;;;;;;5035174;28;20112;-83
2022/06/07 02:08:51;;;;;;;2.08;0.90;;;19.20;99.90;;;;;;5035146;28;20018;-84
2022/06/07 02:11:20;;;;;;;1.80;0.80;;;19.10;99.90;;;;;;5035206;28;20161;-84
2022/06/07 02:13:46;;;;;;;2.22;0.65;;;19.10;99.90;;;;;;5052980;28;20021;-83
2022/06/07 02:16:12;;;;;;;4.38;0.70;;;19.20;99.90;;;;;;5035253;28;20044;-83
2022/06/07 02:18:38;;;;;;;5.63;0.93;;;19.20;99.90;;;;;;5035182;28;20040;-83
2022/06/07 02:21:06;;;;;;;1.15;0.73;;;19.10;99.90;;;;;;5037186;28;20165;-83
2022/06/07 02:23:33;;;;;;;3.60;0.75;;;19.10;99.90;;;;;;5038919;28;20103;-83
2022/06/07 02:26:03;;;;;;;1.13;0.70;;;19.20;99.90;;;;;;5056919;28;20545;-84
2022/06/07 02:28:33;;;;;;;1.92;0.65;;;19.20;99.90;;;;;;5039845;28;20144;-83
2022/06/07 02:30:59;;;;;;;2.80;0.63;;;19.20;99.90;;;;;;5039519;28;20112;-83
2022/06/07 02:33:27;;;;;;;3.50;0.80;;;19.20;99.90;;;;;;5057096;28;20033;-83
2022/06/07 02:35:54;;;;;;;1.80;0.68;;;19.20;99.90;;;;;;5038920;28;20025;-84
2022/06/07 02:38:21;;;;;;;1.73;0.68;;;19.10;99.90;;;;;;5056720;28;20025;-84
2022/06/07 02:40:48;;;;;;;2.15;0.60;;;19.10;99.90;;;;;;5006384;28;20040;-84
2022/06/07 02:43:14;;;;;;;5.63;0.70;;;19.10;99.90;;;;;;5056659;28;20082;-84
2022/06/07 02:45:39;;;;;;;2.63;0.80;;;19.10;99.90;;;;;;5038727;28;20021;-84
2022/06/07 02:48:06;;;;;;;2.60;0.70;;;19.10;99.90;;;;;;5038689;28;20025;-83
2022/06/07 02:50:32;;;;;;;1.17;0.60;;;19.10;99.90;;;;;;5038683;28;20021;-84
2022/06/07 02:52:57;;;;;;;2.10;0.57;;;19.10;99.90;;;;;;5038615;28;20542;-83
2022/06/07 02:55:24;;;;;;;1.23;0.40;;;19.10;99.90;;;;;;5038604;28;20119;-84
2022/06/07 02:57:50;;;;;;;2.25;0.60;;;19.10;99.90;;;;;;5056396;28;20021;-83
2022/06/07 03:00:16;;;;;;;1.10;0.52;;;19.10;99.90;;;;;;5038642;28;20468;-83
2022/06/07 03:02:43;;;;;;;3.55;0.70;;;19.10;99.90;;;;;;5038406;28;20111;-84
2022/06/07 03:05:12;;;;;;;1.85;0.60;;;19.10;99.90;;;;;;5038314;28;20035;-83
2022/06/07 03:07:39;;;;;;;3.50;0.65;;;19.10;99.90;;;;;;5056223;28;20021;-83
2022/06/07 03:10:06;;;;;;;1.77;0.60;;;19.10;99.90;;;;;;5039167;28;20033;-83
2022/06/07 03:12:32;;;;;;;2.03;0.80;;;19.10;99.90;;;;;;5038440;28;20117;-84
2022/06/07 03:14:59;;;;;;;1.17;0.63;;;19.10;99.90;;;;;;5056199;28;20075;-84
2022/06/07 03:17:24;;;;;;;0.77;0.50;;;19.10;99.90;;;;;;5038198;28;20086;-84
2022/06/07 03:19:51;;;;;;;1.00;0.60;;;19.00;99.90;;;;;;5038167;28;20112;-84
2022/06/07 03:22:18;;;;;;;2.30;0.52;;;19.10;99.90;;;;;;5021575;28;20025;-84
2022/06/07 03:24:43;;;;;;;1.42;0.57;;;19.00;99.90;;;;;;5036592;28;20048;-83
2022/06/07 03:27:10;;;;;;;2.10;0.70;;;19.00;99.90;;;;;;5036006;28;20037;-84
2022/06/07 03:29:37;;;;;;;1.10;0.60;;;19.00;99.90;;;;;;5018152;28;20028;-84
2022/06/07 03:32:03;;;;;;;2.55;0.70;;;19.00;99.90;;;;;;5035691;28;20491;-84
2022/06/07 03:34:29;;;;;;;0.70;0.50;;;19.00;99.90;;;;;;5018101;28;20108;-83
2022/06/07 03:36:54;;;;;;;2.30;0.52;;;19.00;99.90;;;;;;5018097;28;20128;-84
2022/06/07 03:39:20;;;;;;;1.67;0.60;;;19.00;99.90;;;;;;5036038;28;20101;-84
2022/06/07 03:41:46;;;;;;;1.92;0.60;;;19.00;99.90;;;;;;5036269;28;20036;-83
2022/06/07 03:44:12;;;;;;;2.05;0.82;;;19.00;99.90;;;;;;5035513;28;20473;-84
2022/06/07 03:46:40;;;;;;;2.45;0.60;;;19.00;99.90;;;;;;5017738;28;20021;-83
2022/06/07 03:49:06;;;;;;;0.65;0.55;;;19.00;99.90;;;;;;5035474;28;20028;-83
2022/06/07 03:51:32;;;;;;;2.03;0.50;;;19.00;99.90;;;;;;5017687;28;20112;-83
2022/06/07 03:53:58;;;;;;;4.53;0.60;;;19.00;99.90;;;;;;5035439;28;20075;-83
2022/06/07 03:56:24;;;;;;;2.03;0.40;;;19.00;99.90;;;;;;5017674;28;20029;-83
2022/06/07 03:58:51;;;;;;;1.20;0.50;;;19.00;99.90;;;;;;5035560;28;20025;-83
2022/06/07 04:01:19;;;;;;;0.68;0.40;;;19.00;99.90;;;;;;5017567;28;20500;-83
2022/06/07 04:03:48;;;;;;;0.90;0.40;;;19.00;99.90;;;;;;5035334;28;20430;-83
2022/06/07 04:06:24;;;;;;;1.65;0.50;;;19.00;99.90;;;;;;5017499;28;20051;-83
2022/06/07 04:08:52;;;;;;;3.05;0.75;;;19.00;99.90;;;;;;5017493;28;20021;-83
2022/06/07 04:11:20;;;;;;;2.33;0.50;;;19.00;99.90;;;;;;5035127;28;20025;-84
2022/06/07 04:13:47;;;;;;;4.20;0.90;;;19.00;99.90;;;;;;5017319;28;20104;-84
2022/06/07 04:16:15;;;;;;;9.63;0.60;;;19.00;99.90;;;;;;5017581;28;20029;-84
2022/06/07 04:18:42;;;;;;;1.33;0.60;;;18.90;99.90;;;;;;5035057;28;20392;-84
2022/06/07 04:21:08;;;;;;;1.92;0.50;;;18.90;99.90;;;;;;5001170;28;20120;-84
2022/06/07 04:23:35;;;;;;;1.50;0.50;;;19.00;99.90;;;;;;5026596;28;20057;-83
2022/06/07 04:26:13;;;;;;;3.70;0.65;;;19.00;99.90;;;;;;5036927;28;20116;-84
2022/06/07 04:28:39;;;;;;;2.17;0.65;;;18.90;99.90;;;;;;5036966;28;20087;-84
2022/06/07 04:31:14;;;;;;;1.83;0.60;;;18.90;99.90;;;;;;5036840;28;20021;-83
2022/06/07 04:33:42;;;;;;;2.38;0.88;;;18.90;99.90;;;;;;5036742;28;20116;-83
2022/06/07 04:36:18;;;;;;;1.67;0.80;;;18.90;99.90;;;;;;5054685;28;20431;-83
2022/06/07 04:38:45;;;;;;;0.70;0.40;;;18.90;99.90;;;;;;5036738;28;20036;-84
2022/06/07 04:41:15;;;;;;;2.38;0.70;;;18.90;99.90;;;;;;5036639;28;20041;-84
2022/06/07 04:43:40;;;;;;;1.25;0.70;;;18.90;99.90;;;;;;5035885;28;20043;-83
2022/06/07 04:46:10;;;;;;;1.02;0.68;;;18.90;99.90;;;;;;5036488;28;20021;-83
2022/06/07 04:48:37;;;;;;;2.90;0.70;;;18.90;99.90;;;;;;5054645;28;20075;-83
2022/06/07 04:51:09;;;;;;;2.35;0.63;;;18.90;99.90;;;;;;5036501;28;20021;-84
2022/06/07 04:53:35;;;;;;;1.00;0.70;;;18.90;99.90;;;;;;5036482;28;20108;-84
2022/06/07 04:56:35;;;;;;;1.40;0.60;;;18.90;99.90;;;;;;5054268;28;20028;-83
2022/06/07 04:59:02;;;;;;;1.50;0.90;;;18.90;99.90;;;;;;5033285;28;20044;-83
2022/06/07 05:01:35;;;;;;;2.35;0.60;;;19.00;99.90;;;;;;5036132;28;20044;-84
2022/06/07 05:04:01;;;;;;;1.05;0.50;;;19.00;99.90;;;;;;5036055;28;20035;-83
2022/06/07 05:06:36;;;;;;;1.17;0.50;;;18.90;99.90;;;;;;5054008;28;20476;-83
2022/06/07 05:09:05;;;;;;;1.08;0.45;;;18.90;99.90;;;;;;5036241;28;20056;-84
2022/06/07 05:11:31;;;;;;;1.20;0.65;;;18.90;99.90;;;;;;5036095;28;20032;-84
2022/06/07 05:13:59;;;;;;;1.77;0.63;;;19.00;99.90;;;;;;5036067;28;20021;-84
2022/06/07 05:16:25;;;;;;;1.58;0.55;;;19.00;99.90;;;;;;5054516;28;20021;-84
2022/06/07 05:18:52;;;;;;;3.55;0.80;;;19.00;99.90;;;;;;5035943;28;20029;-84
2022/06/07 05:21:20;;;;;;;1.10;0.70;;;19.00;99.90;;;;;;5053773;28;20025;-83
2022/06/07 05:23:46;;;;;;;1.90;0.80;;;19.00;99.90;;;;;;5042432;28;20496;-83
2022/06/07 05:26:14;;;;;;;3.58;0.80;;;19.00;99.90;;;;;;5033732;28;20032;-83
2022/06/07 05:28:42;;;;;;;1.33;0.70;;;19.00;99.90;;;;;;5016073;28;20029;-83
2022/06/07 05:31:08;;;;;;;1.50;0.68;;;19.00;99.90;;;;;;5016032;28;20485;-84
2022/06/07 05:33:33;;;;;;;1.33;0.70;;;19.00;99.90;;;;;;5015987;28;20057;-84
2022/06/07 05:35:59;;;;;;;1.80;0.65;;;19.00;99.90;;;;;;5033655;28;20504;-84
2022/06/07 05:38:25;;;;;;;1.73;0.68;;;19.00;99.90;;;;;;5033656;28;20029;-84
2022/06/07 05:40:52;;;;;;;1.85;0.70;;;19.10;99.90;;;;;;5015884;28;20029;-83
2022/06/07 05:43:18;;;;;;;2.97;0.57;;;19.00;99.90;;;;;;5015839;28;20029;-84
2022/06/07 05:45:53;;;;;;;1.48;0.68;;;19.10;99.90;;;;;;5033425;28;20120;-83
2022/06/07 05:48:19;;;;;;;1.40;0.70;;;19.00;99.90;;;;;;5033797;28;20377;-83
2022/06/07 05:50:50;;;;;;;1.25;0.77;;;19.10;99.90;;;;;;5015750;28;20512;-83
2022/06/07 05:53:17;;;;;;;1.17;0.52;;;19.00;99.90;;;;;;5033447;28;20040;-83
2022/06/07 05:55:42;;;;;;;1.10;0.70;;;19.00;99.90;;;;;;5014733;28;20033;-83
2022/06/07 05:58:08;;;;;;;1.90;0.80;;;19.10;99.90;;;;;;5015680;28;20480;-84
2022/06/07 06:00:35;;;;;;;1.42;0.60;;;19.10;99.90;;;;;;5033258;28;20025;-83
2022/06/07 06:03:01;;;;;;;2.45;0.70;;;19.10;99.90;;;;;;5015573;28;20025;-83
2022/06/07 06:05:28;;;;;;;1.23;0.60;;;19.10;99.90;;;;;;5015524;28;20416;-84
2022/06/07 06:10:38;;;;;;;1.73;0.60;;;19.10;99.90;;;;;;5033567;28;20037;-83
2022/06/07 06:13:04;;;;;;;1.73;0.90;;;19.10;99.90;;;;;;5033499;28;20469;-83
2022/06/07 06:15:30;;;;;;;2.47;0.57;;;19.10;99.90;;;;;;4999046;28;20033;-83
2022/06/07 06:17:55;;;;;;;2.42;1.05;;;19.20;99.90;;;;;;5033127;28;20025;-84
2022/06/07 06:20:22;;;;;;;1.77;0.60;;;19.20;99.90;;;;;;5015508;28;20047;-83
2022/06/07 06:22:48;;;;;;;2.50;0.57;;;19.20;99.90;;;;;;5015186;28;20377;-84
2022/06/07 06:25:14;;;;;;;1.05;0.70;;;19.20;99.90;;;;;;5015315;28;20021;-83
2022/06/07 06:27:40;;;;;;;1.25;0.68;;;19.20;99.90;;;;;;5033059;28;20072;-83
2022/06/07 06:30:07;;;;;;;2.35;0.70;;;19.20;99.90;;;;;;5033601;28;20539;-84
2022/06/07 06:32:33;;;;;;;1.02;0.55;;;19.20;99.90;;;;;;4999147;28;20473;-83
2022/06/07 06:34:59;;;;;;;1.15;0.70;;;19.20;99.90;;;;;;5032998;28;20100;-84
2022/06/07 06:37:27;;;;;;;1.33;0.63;;;19.20;99.90;;;;;;5015285;28;20025;-83
2022/06/07 06:39:53;;;;;;;0.93;0.60;;;19.20;99.90;;;;;;5032916;28;20037;-84
2022/06/07 06:42:20;;;;;;;2.65;0.88;;;19.20;99.90;;;;;;4999000;28;20067;-83
2022/06/07 06:44:46;;;;;;;1.38;0.50;;;19.20;99.90;;;;;;5015156;28;20025;-83
2022/06/07 06:47:13;;;;;;;3.13;0.60;;;19.20;99.90;;;;;;5033157;28;20037;-83
2022/06/07 06:49:40;;;;;;;4.90;0.73;;;19.20;99.90;;;;;;5015159;28;20025;-83
2022/06/07 06:52:07;;;;;;;1.00;0.55;;;19.30;99.90;;;;;;5015473;28;20032;-84
2022/06/07 06:54:34;;;;;;;1.75;0.77;;;19.30;99.90;;;;;;5033169;28;20033;-83
2022/06/07 06:57:00;;;;;;;1.38;0.90;;;19.30;99.90;;;;;;5033143;28;20472;-83
2022/06/07 06:59:26;;;;;;;3.47;0.73;;;19.30;99.90;;;;;;5015009;28;20032;-83
2022/06/07 07:01:51;;;;;;;1.50;0.60;;;19.30;99.90;;;;;;5032449;28;20108;-83
2022/06/07 07:04:19;;;;;;;1.85;0.80;;;19.30;99.90;;;;;;5015013;28;20087;-83
2022/06/07 07:06:46;;;;;;;3.33;0.85;;;19.40;99.90;;;;;;5034481;28;20384;-83
2022/06/07 07:09:14;;;;;;;3.80;0.90;;;19.40;99.90;;;;;;5035115;28;20029;-83
2022/06/07 07:11:43;;;;;;;3.45;0.80;;;19.40;99.90;;;;;;5018520;28;20022;-84
2022/06/07 07:14:10;;;;;;;0.80;0.63;;;19.40;99.90;;;;;;5018560;28;20112;-84
2022/06/07 07:16:44;;;;;;;5.35;0.98;;;19.50;99.90;;;;;;5018529;28;20507;-83
2022/06/07 07:19:11;;;;;;;2.42;0.70;;;19.50;99.90;;;;;;5018464;28;20029;-84
2022/06/07 07:21:40;;;;;;;1.67;0.73;;;19.50;99.90;;;;;;5018264;28;20029;-83
2022/06/07 07:24:09;;;;;;;2.00;0.57;;;19.50;99.90;;;;;;5031790;28;20053;-83
2022/06/07 07:26:37;;;;;;;1.80;0.60;;;19.50;99.90;;;;;;5037967;28;20142;-84
2022/06/07 07:29:05;;;;;;;2.30;0.85;;;19.50;99.90;;;;;;5055898;28;20025;-84
2022/06/07 07:31:33;;;;;;;2.20;0.50;;;19.60;99.90;;;;;;5037992;28;20507;-84
2022/06/07 07:34:03;;;;;;;4.00;0.60;;;19.60;99.90;;;;;;5037974;28;20120;-83
2022/06/07 07:36:29;;;;;;;1.38;0.70;;;19.60;99.90;;;;;;5037796;28;20064;-83
2022/06/07 07:38:56;;;;;;;1.27;0.60;;;19.50;99.90;;;;;;5037839;28;20116;-83
2022/06/07 07:41:29;;;;;;;1.33;0.60;;;19.60;99.90;;;;;;5037843;28;20029;-83
2022/06/07 07:43:57;;;;;;;1.38;0.70;;;19.60;99.90;;;;;;5021501;28;20035;-83
2022/06/07 07:46:28;;;;;;;2.65;0.80;;;19.50;99.90;;;;;;5055526;28;20488;-83
2022/06/07 07:48:53;;;;;;;2.22;0.80;;;19.60;99.90;;;;;;5037723;28;20021;-84
2022/06/07 07:51:28;;;;;;;3.00;0.70;;;19.60;99.90;;;;;;5037655;28;20017;-84
2022/06/07 07:53:56;;;;;;;1.98;0.70;;;19.60;99.90;;;;;;5055777;28;20071;-83
2022/06/07 07:56:22;;;;;;;1.08;0.63;;;19.60;99.90;;;;;;5037461;28;20021;-83
2022/06/07 07:58:49;;;;;;;1.83;0.70;;;19.60;99.90;;;;;;5037383;28;20083;-83
2022/06/07 08:01:17;;;;;;;1.88;0.70;;;19.60;99.90;;;;;;5037485;28;20024;-84
2022/06/07 08:03:43;;;;;;;3.78;0.80;;;19.60;99.90;;;;;;5055825;28;20025;-83
2022/06/07 08:06:12;;;;;;;3.75;0.63;;;19.50;99.90;;;;;;5037274;28;20527;-84
2022/06/07 08:08:39;;;;;;;2.00;0.60;;;19.50;99.90;;;;;;5037269;28;20025;-83
2022/06/07 08:11:05;;;;;;;1.85;0.50;;;19.50;99.90;;;;;;5037320;28;20566;-84
2022/06/07 08:13:33;;;;;;;2.03;0.68;;;19.50;99.90;;;;;;5037315;28;20025;-83
2022/06/07 08:15:59;;;;;;;2.00;0.60;;;19.40;99.90;;;;;;5054990;28;20557;-84
2022/06/07 08:18:26;;;;;;;1.55;0.57;;;19.40;99.90;;;;;;5036049;28;20029;-83
2022/06/07 08:20:58;;;;;;;1.48;0.68;;;19.40;99.90;;;;;;5054907;28;20025;-84
2022/06/07 08:23:25;;;;;;;1.20;0.60;;;19.40;99.90;;;;;;5046644;28;20053;-83
2022/06/07 08:25:51;;;;;;;0.82;0.52;;;19.40;99.90;;;;;;5034480;28;20542;-84
2022/06/07 08:28:16;;;;;;;1.45;0.60;;;19.40;99.90;;;;;;5017365;28;20025;-83
2022/06/07 08:30:46;;;;;;;3.53;0.82;;;19.50;99.90;;;;;;5017002;28;20022;-83
2022/06/07 08:38:41;;;;;;;1.13;0.63;;;19.50;99.90;;;;;;5035247;28;20033;-83
2022/06/07 08:41:17;;;;;;;2.65;0.50;;;19.60;99.90;;;;;;5016807;28;20064;-83
2022/06/07 08:43:46;;;;;;;1.65;0.70;;;19.60;99.90;;;;;;5034549;28;20026;-84
2022/06/07 08:46:15;;;;;;;0.98;0.50;;;19.60;99.90;;;;;;5016658;28;20021;-83
2022/06/07 08:48:42;;;;;;;2.35;0.70;;;19.60;99.90;;;;;;5016672;28;20022;-83
2022/06/07 08:51:28;;;;;;;0.60;0.50;;;19.70;99.90;;;;;;5016713;28;20029;-84
2022/06/07 08:54:00;;;;;;;1.30;0.60;;;19.70;99.90;;;;;;5016743;28;20488;-84
2022/06/07 08:56:33;;;;;;;1.63;0.68;;;19.70;99.90;;;;;;5016584;28;20025;-84
2022/06/07 08:59:08;;;;;;;3.53;0.77;;;19.70;99.90;;;;;;5034241;28;20029;-84
2022/06/07 09:01:38;;;;;;;1.42;0.50;;;19.70;99.90;;;;;;5000405;28;20120;-84
2022/06/07 09:04:32;;;;;;;0.85;0.40;;;19.80;99.90;;;;;;5034200;28;20515;-83
2022/06/07 09:07:03;;;;;;;1.38;0.70;;;19.70;99.90;;;;;;5013253;28;20076;-83
2022/06/07 09:12:28;;;;;;;1.83;0.50;;;19.80;99.90;;;;;;5034087;28;20047;-83
2022/06/07 09:15:08;;;;;;;0.88;0.50;;;19.80;99.90;;;;;;5034300;28;20028;-84
2022/06/07 09:17:58;;;;;;;2.38;0.55;;;19.80;99.90;;;;;;5033992;28;20380;-83
2022/06/07 09:20:35;;;;;;;1.73;0.63;;;19.80;99.90;;;;;;5016167;28;20037;-84
2022/06/07 09:23:20;;;;;;;1.10;0.70;;;19.80;99.90;;;;;;5020845;28;20045;-83
2022/06/07 09:25:51;;;;;;;2.20;0.60;;;19.80;99.90;;;;;;5035716;28;20032;-84
2022/06/07 09:28:27;;;;;;;1.23;0.68;;;19.90;99.90;;;;;;5035778;28;20032;-84
2022/06/07 09:31:16;;;;;;;1.33;0.60;;;19.90;99.90;;;;;;5035508;28;20112;-83
2022/06/07 09:34:19;;;;;;;2.65;0.93;;;19.90;99.90;;;;;;5035739;28;20052;-83
2022/06/07 09:36:50;;;;;;;1.48;0.50;;;19.90;99.90;;;;;;5025162;28;20029;-82
2022/06/07 09:39:26;;;;;;;1.75;0.60;;;20.00;99.90;;;;;;5035695;28;20025;-83
2022/06/07 09:42:01;;;;;;;0.88;0.55;;;20.00;99.90;;;;;;5019334;28;20094;-84
2022/06/07 09:44:37;;;;;;;0.98;0.40;;;20.00;99.90;;;;;;5035577;28;20032;-84
2022/06/07 09:47:02;;;;;;;0.70;0.50;;;20.00;99.90;;;;;;5053449;28;20074;-84
2022/06/07 09:49:28;;;;;;;1.25;0.60;;;20.00;99.90;;;;;;5035523;28;20020;-85
2022/06/07 09:51:54;;;;;;;1.30;0.52;;;20.00;99.90;;;;;;5035523;28;20028;-84
2022/06/07 09:54:21;;;;;;;0.68;0.55;;;20.00;99.90;;;;;;5036243;28;20025;-83
2022/06/07 09:57:24;;;;;;;1.55;0.60;;;20.00;99.90;;;;;;5018925;28;20025;-84
2022/06/07 10:00:09;;;;;;;1.08;0.50;;;20.00;99.90;;;;;;5035238;28;20028;-84
2022/06/07 10:03:12;;;;;;;1.27;0.60;;;20.00;99.90;;;;;;5035367;28;20469;-84
2022/06/07 10:05:54;;;;;;;1.77;0.65;;;20.00;99.90;;;;;;5035218;28;20029;-84
2022/06/07 10:08:28;;;;;;;1.17;0.40;;;20.00;99.90;;;;;;5034992;28;20476;-84
2022/06/07 10:11:01;;;;;;;3.20;0.70;;;20.00;99.90;;;;;;5035225;28;20025;-84
2022/06/07 10:14:00;;;;;;;0.90;0.40;;;20.00;99.90;;;;;;5035268;28;20369;-84
2022/06/07 10:16:36;;;;;;;1.98;0.50;;;20.00;99.90;;;;;;5035198;28;20025;-84
2022/06/07 10:19:10;;;;;;;1.73;0.60;;;20.00;99.90;;;;;;5035236;28;20487;-84
2022/06/07 10:21:55;;;;;;;0.82;0.52;;;20.00;99.90;;;;;;5035157;28;20025;-84
2022/06/07 10:24:48;;;;;;;1.38;0.43;;;20.00;99.90;;;;;;5034940;28;20048;-84
2022/06/07 10:27:40;;;;;;;1.08;0.63;;;19.90;99.90;;;;;;5035206;28;20025;-84
2022/06/07 10:30:15;;;;;;;0.70;0.50;;;19.90;99.90;;;;;;5035145;28;20025;-84
2022/06/07 10:33:07;;;;;;;1.33;0.60;;;19.90;99.90;;;;;;5053032;28;20013;-84
2022/06/07 10:35:58;;;;;;;1.08;0.50;;;19.90;99.90;;;;;;4995422;28;20091;-84
2022/06/07 10:38:57;;;;;;;1.98;0.50;;;19.80;99.90;;;;;;5035066;28;20067;-84
2022/06/07 10:41:28;;;;;;;0.70;0.50;;;19.90;99.90;;;;;;5053738;28;20467;-84
2022/06/07 10:44:11;;;;;;;2.90;0.70;;;19.90;99.90;;;;;;5038883;28;20021;-84
2022/06/07 10:46:41;;;;;;;0.80;0.45;;;19.90;99.90;;;;;;5038779;28;20041;-83
2022/06/07 10:49:30;;;;;;;1.20;0.50;;;20.00;99.90;;;;;;5038734;28;20074;-83
2022/06/07 10:52:21;;;;;;;1.15;0.50;;;20.00;99.90;;;;;;5039566;28;20108;-84
2022/06/07 10:54:58;;;;;;;1.55;0.57;;;20.00;99.90;;;;;;5038675;28;20029;-84
2022/06/07 10:57:33;;;;;;;0.63;0.40;;;20.00;99.90;;;;;;5038717;28;20092;-85
2022/06/07 11:00:11;;;;;;;1.55;0.52;;;20.00;99.90;;;;;;5038536;28;20057;-84
2022/06/07 11:02:52;;;;;;;0.88;0.50;;;20.00;99.90;;;;;;5056500;28;20036;-84
2022/06/07 11:11:05;;;;;;;0.98;0.50;;;20.10;99.90;;;;;;5056906;28;20396;-84
2022/06/07 11:13:46;;;;;;;1.13;0.63;;;20.10;99.90;;;;;;5038311;28;20021;-83
2022/06/07 11:16:31;;;;;;;0.90;0.40;;;20.10;99.90;;;;;;5038078;28;20029;-84
2022/06/07 11:19:01;;;;;;;0.77;0.50;;;20.10;99.90;;;;;;5038546;28;20036;-84
2022/06/07 11:21:31;;;;;;;0.77;0.43;;;20.00;99.90;;;;;;5039332;28;20025;-84
2022/06/07 11:24:05;;;;;;;2.92;0.47;;;20.00;99.90;;;;;;5038204;28;20053;-84
2022/06/07 11:26:50;;;;;;;0.80;0.60;;;20.00;99.90;;;;;;5055966;28;20021;-84
2022/06/07 11:29:18;;;;;;;;;;;20.00;99.90;;;;;;5038720;28;20021;-84
2022/06/07 11:31:44;;;;;;;0.73;0.50;;;20.00;99.90;;;;;;5055863;28;20288;-83
2022/06/07 11:34:25;;;;;;;1.10;0.50;;;20.10;99.90;;;;;;5055327;28;20106;-84
2022/06/07 11:37:00;;;;;;;1.95;0.40;;;20.10;99.90;;;;;;5038157;28;20017;-84
2022/06/07 11:39:31;;;;;;;1.02;0.38;;;20.10;99.90;;;;;;5037883;28;20025;-85
2022/06/07 11:42:06;;;;;;;0.95;0.60;;;20.10;99.90;;;;;;5055272;28;20041;-85
2022/06/07 11:44:35;;;;;;;0.55;0.30;;;20.10;99.90;;;;;;5037716;28;20032;-84
2022/06/07 11:47:21;;;;;;;2.47;0.60;;;20.20;99.90;;;;;;5037755;28;20032;-84
2022/06/07 11:49:48;;;;;;;1.20;0.50;;;20.20;99.90;;;;;;5055606;28;20060;-84
2022/06/07 11:52:25;;;;;;;1.95;0.50;;;20.20;99.90;;;;;;5037494;28;20021;-84
2022/06/07 11:54:56;;;;;;;0.80;0.45;;;20.20;99.90;;;;;;5037597;28;20122;-84
2022/06/07 11:57:57;;;;;;;1.05;0.52;;;20.30;99.90;;;;;;5037830;28;20025;-84
2022/06/07 12:00:29;;;;;;;0.63;0.40;;;20.30;99.90;;;;;;5037463;28;20087;-84
2022/06/07 12:03:01;;;;;;;0.75;0.50;;;20.40;99.90;;;;;;5037450;28;20021;-84
2022/06/07 12:05:43;;;;;;;0.80;0.40;;;20.40;99.90;;;;;;5037332;28;20108;-84
2022/06/07 12:08:32;;;;;;;1.38;0.40;;;20.40;99.90;;;;;;5037389;28;20105;-84
2022/06/07 12:11:03;;;;;;;1.02;0.50;;;20.40;99.90;;;;;;5037343;28;20025;-84
2022/06/07 12:13:51;;;;;;;0.70;0.40;;;20.40;99.90;;;;;;5037289;28;20079;-84
2022/06/07 12:16:33;;;;;;;0.57;0.30;;;20.30;99.90;;;;;;5023070;28;20043;-83
2022/06/07 12:19:00;;;;;;;0.50;0.40;;;20.40;99.90;;;;;;5037144;28;20036;-84
2022/06/07 12:21:27;;;;;;;1.13;0.30;;;20.40;99.90;;;;;;5037114;28;20108;-84
2022/06/07 12:24:15;;;;;;;0.47;0.40;;;20.40;99.90;;;;;;5036860;28;20049;-84
2022/06/07 12:26:45;;;;;;;0.93;0.38;;;20.40;99.90;;;;;;5054807;28;20025;-84
2022/06/07 12:29:24;;;;;;;0.75;0.32;;;20.40;99.90;;;;;;5037378;28;20056;-84
2022/06/07 12:32:06;;;;;;;0.75;0.40;;;20.50;99.90;;;;;;5036815;28;20017;-85
2022/06/07 12:34:34;;;;;;;1.80;0.30;;;20.50;99.90;;;;;;5036847;28;20028;-83
2022/06/07 12:37:23;;;;;;;0.70;0.30;;;20.50;99.90;;;;;;5020551;28;20060;-84
2022/06/07 12:39:53;;;;;;;2.47;0.60;;;20.50;99.90;;;;;;5036794;28;20025;-84
2022/06/07 12:42:20;;;;;;;0.57;0.30;;;20.60;99.90;;;;;;5036646;28;20032;-84
2022/06/07 12:44:56;;;;;;;0.55;0.30;;;20.60;99.90;;;;;;5036584;28;20480;-84
2022/06/07 12:47:25;;;;;;;0.70;0.40;;;20.60;99.90;;;;;;5054682;28;20087;-84
2022/06/07 12:49:51;;;;;;;0.68;0.50;;;20.70;99.90;;;;;;5036487;28;20499;-84
2022/06/07 12:52:25;;;;;;;0.55;0.30;;;20.70;99.90;;;;;;5054881;28;20017;-84
2022/06/07 12:54:55;;;;;;;0.68;0.40;;;20.70;99.90;;;;;;5018509;28;20025;-84
2022/06/07 12:57:30;;;;;;;1.05;0.40;;;20.70;99.90;;;;;;5036333;28;20025;-84
2022/06/07 13:00:07;;;;;;;1.27;0.30;;;20.80;99.90;;;;;;5036176;28;20396;-84
2022/06/07 13:02:41;;;;;;;0.88;0.40;;;20.90;99.90;;;;;;5036518;28;20388;-84
2022/06/07 13:05:22;;;;;;;;;;;20.90;99.90;;;;;;5036007;28;20025;-84
2022/06/07 13:07:57;;;;;;;0.70;0.40;;;21.00;99.90;;;;;;5036051;28;19956;-85
2022/06/07 13:10:26;;;;;;;0.68;0.35;;;21.20;99.90;;;;;;5036102;28;20124;-84
2022/06/07 13:12:58;;;;;;;2.10;0.50;;;21.30;99.80;;;;;;5054184;28;20484;-84
2022/06/07 13:15:28;;;;;;;1.02;0.40;;;21.40;99.50;;;;;;5036828;28;20501;-84
2022/06/07 13:18:20;;;;;;;0.70;0.40;;;21.40;99.50;;;;;;5053819;28;20028;-84
2022/06/07 13:20:49;;;;;;;0.65;0.40;;;21.30;99.60;;;;;;5032606;28;20075;-84
2022/06/07 13:23:25;;;;;;;0.98;0.40;;;21.30;99.80;;;;;;5035891;28;20377;-84
2022/06/07 13:26:07;;;;;;;0.63;0.30;;;21.20;99.90;;;;;;5053624;28;20028;-84
2022/06/07 13:28:34;;;;;;;0.70;0.30;;;21.10;99.90;;;;;;5035798;28;20020;-84
2022/06/07 13:31:00;;;;;;;0.52;0.30;;;21.00;99.90;;;;;;5054139;28;20476;-84